Flight Track Log - Related Links

Times and Time Zones

All times are in EDT time to prevent confusion due to time zone crossing. See the N233MA flight status page for this flight to view local times or setup timezone preferences in your user account.

Time Position Orientation Groundspeed Altitude Reporting Facility
EDT Latitude Longitude Course Direction KTS MPH feet Rate Location/Type
Sat 10:21:20 AM 34.3236 -83.5811 348° North 117 135 4,100  Level Atlanta Center
Sat 10:22:20 AM 34.3528 -83.5833 356° North 107 123 4,700 550 Climbing Atlanta Center
Sat 10:23:20 AM 34.3842 -83.5858 356° North 107 123 5,200 550 Climbing Atlanta Center
Sat 10:24:00 AM 34.3216 -83.5667 North  Level FlightAware Approximate
Sat 10:24:20 AM 34.4133 -83.5881 356° North 107 123 5,800  Level Atlanta Center
Sat 10:25:20 AM 34.4447 -83.5931 353° North 109 125 6,400 550 Climbing Atlanta Center
Sat 10:26:20 AM 34.4697 -83.5928 North 97 112 6,900 550 Climbing Atlanta Center
Sat 10:27:20 AM 34.4969 -83.5978 351° North 97 112 7,500 550 Climbing Atlanta Center
Sat 10:28:20 AM 34.5239 -83.6025 352° North 97 112 8,000 500 Climbing Atlanta Center
Sat 10:29:20 AM 34.5511 -83.6050 356° North 92 106 8,500 500 Climbing Atlanta Center
Sat 10:30:20 AM 34.5825 -83.6100 353° North 92 106 9,000 450 Climbing Atlanta Center
Sat 10:31:20 AM 34.6033 -83.6122 355° North 92 106 9,400 400 Climbing Atlanta Center
Sat 10:32:20 AM 34.6306 -83.6147 356° North 87 100 9,800 300 Climbing Atlanta Center
Sat 10:33:20 AM 34.6575 -83.6169 356° North 87 100 10,000 100 Climbing Atlanta Center
Sat 10:34:20 AM 34.6911 -83.6219 353° North 104 120 10,000  Level Atlanta Center
Sat 10:35:20 AM 34.7264 -83.6242 357° North 112 129 10,000  Level Atlanta Center
Sat 10:36:20 AM 34.7600 -83.6292 353° North 117 135 10,000  Level Atlanta Center
Sat 10:37:20 AM 34.7933 -83.6317 356° North 122 140 10,000  Level Atlanta Center
Sat 10:38:20 AM 34.8247 -83.6364 353° North 122 140 10,000  Level Atlanta Center
Sat 10:39:20 AM 34.8581 -83.6414 353° North 122 140 10,000  Level Atlanta Center
Sat 10:40:20 AM 34.8933 -83.6436 357° North 122 140 10,000  Level Atlanta Center
Sat 10:41:20 AM 34.9269 -83.6461 357° North 122 140 10,000  Level Atlanta Center
Sat 10:42:20 AM 34.9625 -83.6561 347° North 122 140 10,000  Level Atlanta Center
Sat 10:43:20 AM 34.9978 -83.6583 357° North 122 140 10,000  Level Atlanta Center
Sat 10:44:20 AM 35.0314 -83.6633 353° North 122 140 10,000  Level Atlanta Center
Sat 10:45:20 AM 35.0625 -83.6658 356° North 122 140 10,000  Level Atlanta Center
Sat 10:46:20 AM 35.0958 -83.6706 353° North 122 140 10,000  Level Atlanta Center
Sat 10:47:20 AM 35.1294 -83.6731 357° North 122 140 10,000  Level Atlanta Center
Sat 10:48:20 AM 35.1606 -83.6806 349° North 122 140 10,000  Level Atlanta Center
Sat 10:49:20 AM 35.1983 -83.6831 357° North 122 140 10,000  Level Atlanta Center
Sat 10:50:20 AM 35.2294 -83.6878 353° North 122 140 10,000  Level Atlanta Center
Sat 10:51:20 AM 35.2650 -83.6928 353° North 122 140 10,000  Level Atlanta Center
Sat 10:52:20 AM 35.2964 -83.6953 356° North 122 140 10,000  Level Atlanta Center
Sat 10:53:20 AM 35.3297 -83.7003 353° North 122 140 10,000  Level Atlanta Center
Sat 10:54:20 AM 35.3631 -83.7000 360° North 122 140 10,000  Level Atlanta Center
Sat 10:55:20 AM 35.3986 -83.7050 353° North 122 140 10,000  Level Atlanta Center
Sat 10:56:20 AM 35.4319 -83.7100 353° North 122 140 10,000  Level Atlanta Center
Sat 10:57:20 AM 35.4694 -83.7150 354° North 122 140 10,000  Level Atlanta Center
Sat 10:58:20 AM 35.4989 -83.7200 352° North 122 140 10,000  Level Atlanta Center
Sat 10:59:20 AM 35.5342 -83.7222 357° North 122 140 10,000  Level Atlanta Center
Sat 11:01:03 AM 35.5906 -83.7264 357° North 122 140 10,000  Level Indianapolis Center
Sat 11:02:05 AM 35.6239 -83.7286 357° North 121 139 10,000  Level Indianapolis Center
Sat 11:03:06 AM 35.6592 -83.7339 353° North 125 144 10,000  Level Indianapolis Center
Sat 11:04:08 AM 35.6992 -83.7383 355° North 124 143 10,000  Level Indianapolis Center
Sat 11:05:10 AM 35.7331 -83.7422 355° North 123 142 10,000  Level Indianapolis Center
Sat 11:06:12 AM 35.7683 -83.7467 354° North 125 144 10,000  Level Indianapolis Center
Sat 11:07:13 AM 35.8017 -83.7500 355° North 123 142 10,000  Level Indianapolis Center
Sat 11:08:15 AM 35.8364 -83.7550 353° North 124 143 10,000  Level Indianapolis Center
Sat 11:09:17 AM 35.8719 -83.7586 355° North 126 145 10,000  Level Indianapolis Center
Sat 11:10:19 AM 35.9078 -83.7625 355° North 128 147 10,000  Level Indianapolis Center
Sat 11:11:20 AM 35.9475 -83.7686 353° North 125 144 10,000  Level Indianapolis Center
Sat 11:12:22 AM 35.9792 -83.7714 356° North 126 145 10,000  Level Indianapolis Center
Sat 11:13:24 AM 36.0203 -83.7769 354° North 125 144 10,000  Level Indianapolis Center
Sat 11:13:56 AM 36.0372 -83.7819 347° North 131 151 10,000  Level Atlanta Center
Sat 11:14:56 AM 36.0725 -83.7869 353° North 131 151 10,000  Level Atlanta Center
Sat 11:15:56 AM 36.1039 -83.7919 353° North 131 151 10,000  Level Atlanta Center
Sat 11:16:29 AM 36.1264 -83.7892 North 129 148 10,000  Level Indianapolis Center
Sat 11:17:31 AM 36.1606 -83.7933 354° North 124 143 10,000  Level Indianapolis Center
Sat 11:18:33 AM 36.1958 -83.7975 355° North 126 145 10,000  Level Indianapolis Center
Sat 11:19:35 AM 36.2297 -83.8028 353° North 123 142 10,000  Level Indianapolis Center
Sat 11:20:36 AM 36.2717 -83.8075 355° North 125 144 10,000  Level Indianapolis Center
Sat 11:21:38 AM 36.3047 -83.8106 356° North 121 139 10,000  Level Indianapolis Center
Sat 11:22:40 AM 36.3403 -83.8147 355° North 126 145 10,000  Level Indianapolis Center
Sat 11:23:41 AM 36.3736 -83.8183 355° North 122 140 10,000  Level Indianapolis Center
Sat 11:24:43 AM 36.4097 -83.8236 353° North 127 146 10,000  Level Indianapolis Center
Sat 11:25:45 AM 36.4472 -83.8269 356° North 124 143 10,000  Level Indianapolis Center
Sat 11:26:47 AM 36.4781 -83.8311 354° North 124 143 10,000  Level Indianapolis Center
Sat 11:27:48 AM 36.5164 -83.8350 355° North 123 142 10,000  Level Indianapolis Center
Sat 11:28:50 AM 36.5511 -83.8400 353° North 124 143 10,000  Level Indianapolis Center
Sat 11:29:52 AM 36.5853 -83.8447 354° North 123 142 10,000  Level Indianapolis Center
Sat 11:30:53 AM 36.6192 -83.8481 355° North 121 139 10,000  Level Indianapolis Center
Sat 11:31:55 AM 36.6603 -83.8528 355° North 126 145 10,000  Level Indianapolis Center
Sat 11:32:57 AM 36.6942 -83.8569 354° North 123 142 10,000  Level Indianapolis Center
Sat 11:33:59 AM 36.7286 -83.8619 353° North 123 142 10,000  Level Indianapolis Center
Sat 11:35:00 AM 36.7619 -83.8658 355° North 121 139 10,000  Level Indianapolis Center
Sat 11:36:02 AM 36.7953 -83.8700 354° North 121 139 10,000  Level Indianapolis Center
Sat 11:37:04 AM 36.8292 -83.8756 353° North 122 140 10,000  Level Indianapolis Center
Sat 11:38:05 AM 36.8633 -83.8800 354° North 122 140 10,000  Level Indianapolis Center
Sat 11:39:07 AM 36.9022 -83.8822 357° North 120 138 10,000  Level Indianapolis Center
Sat 11:40:09 AM 36.9364 -83.8872 353° North 121 139 10,000  Level Indianapolis Center
Sat 11:41:10 AM 36.9708 -83.8914 354° North 123 142 10,000  Level Indianapolis Center
Sat 11:42:12 AM 37.0039 -83.8956 354° North 121 139 10,000  Level Indianapolis Center
Sat 11:43:13 AM 37.0392 -83.8997 355° North 123 142 10,000  Level Indianapolis Center
Sat 11:44:15 AM 37.0725 -83.9036 355° North 123 142 10,000  Level Indianapolis Center
Sat 11:45:17 AM 37.1064 -83.9075 355° North 121 139 10,000  Level Indianapolis Center
Sat 11:46:18 AM 37.1475 -83.9125 354° North 126 145 10,000  Level Indianapolis Center
Sat 11:47:20 AM 37.1819 -83.9178 353° North 125 144 10,000  Level Indianapolis Center
Sat 11:48:22 AM 37.2161 -83.9219 354° North 124 143 10,000  Level Indianapolis Center
Sat 11:49:23 AM 37.2503 -83.9261 354° North 124 143 10,000  Level Indianapolis Center
Sat 11:50:25 AM 37.2853 -83.9303 355° North 125 144 10,000  Level Indianapolis Center
Sat 11:51:26 AM 37.3206 -83.9353 354° North 126 145 10,000  Level Indianapolis Center
Sat 11:52:28 AM 37.3556 -83.9397 354° North 127 146 10,000  Level Indianapolis Center
Sat 11:53:30 AM 37.3900 -83.9431 356° North 125 144 10,000  Level Indianapolis Center
Sat 11:54:31 AM 37.4311 -83.9478 355° North 125 144 10,000  Level Indianapolis Center
Sat 11:55:33 AM 37.4653 -83.9522 354° North 124 143 10,000  Level Indianapolis Center
Sat 11:56:34 AM 37.4994 -83.9572 353° North 123 142 10,000  Level Indianapolis Center
Sat 11:57:36 AM 37.5350 -83.9611 355° North 126 145 10,000  Level Indianapolis Center
Sat 11:58:37 AM 37.5689 -83.9658 354° North 123 142 10,000  Level Indianapolis Center
Sat 11:59:39 AM 37.6036 -83.9697 355° North 125 144 10,000  Level Indianapolis Center
Sat 12:00:41 PM 37.6378 -83.9744 354° North 123 142 10,000  Level Indianapolis Center
Sat 12:01:42 PM 37.6794 -83.9789 355° North 127 146 10,000  Level Indianapolis Center
Sat 12:02:44 PM 37.7125 -83.9839 353° North 121 139 10,000  Level Indianapolis Center
Sat 12:03:46 PM 37.7481 -83.9892 353° North 127 146 10,000  Level Indianapolis Center
Sat 12:04:48 PM 37.7831 -83.9922 356° North 126 145 10,000  Level Indianapolis Center
Sat 12:05:49 PM 37.8178 -83.9972 354° North 125 144 10,000  Level Indianapolis Center
Sat 12:06:51 PM 37.8528 -84.0022 354° North 126 145 10,000 -146 Level Indianapolis Center
Sat 12:07:52 PM 37.8894 -84.0056 356° North 130 150 9,700 -390 Descending Indianapolis Center
Sat 12:08:54 PM 37.9336 -84.0114 354° North 135 155 9,200 -484 Descending Indianapolis Center
Sat 12:09:56 PM 37.9708 -84.0150 356° North 135 155 8,700 -488 Descending Indianapolis Center
Sat 12:10:57 PM 38.0078 -84.0211 353° North 134 154 8,200 -488 Descending Indianapolis Center
Sat 12:11:59 PM 38.0464 -84.0244 356° North 136 157 7,700 -488 Descending Indianapolis Center
Sat 12:13:00 PM 38.0853 -84.0294 354° North 138 159 7,200 -341 Descending Indianapolis Center
Sat 12:14:02 PM 38.1239 -84.0358 353° North 139 160 7,000 -98 Descending Indianapolis Center
Sat 12:15:03 PM 38.1600 -84.0403 354° North 135 155 7,000  Level Indianapolis Center
Sat 12:16:05 PM 38.1950 -84.0450 354° North 131 151 7,000  Level Indianapolis Center
Sat 12:17:06 PM 38.2369 -84.0492 356° North 129 148 7,000  Level Indianapolis Center
Sat 12:18:08 PM 38.2728 -84.0536 354° North 129 148 7,000  Level Indianapolis Center
Sat 12:19:10 PM 38.3086 -84.0575 355° North 129 148 7,000  Level Indianapolis Center
Sat 12:20:11 PM 38.3447 -84.0625 354° North 130 150 7,000  Level Indianapolis Center
Sat 12:21:13 PM 38.3803 -84.0661 355° North 128 147 7,000  Level Indianapolis Center
Sat 12:22:15 PM 38.4167 -84.0708 354° North 131 151 7,000  Level Indianapolis Center
Sat 12:23:16 PM 38.4533 -84.0764 353° North 133 153 7,000  Level Indianapolis Center
Sat 12:24:18 PM 38.4961 -84.0833 353° North 132 152 7,000  Level Indianapolis Center
Sat 12:25:19 PM 38.5325 -84.0864 356° North 132 152 7,000  Level Indianapolis Center
Sat 12:26:21 PM 38.5686 -84.0919 353° North 130 150 7,000  Level Indianapolis Center
Sat 12:27:23 PM 38.6058 -84.0950 356° North 133 153 7,000  Level Indianapolis Center
Sat 12:28:24 PM 38.6428 -84.1008 353° North 133 153 7,000  Level Indianapolis Center
Sat 12:29:26 PM 38.6808 -84.1078 352° North 136 157 7,000  Level Indianapolis Center
Sat 12:30:28 PM 38.7175 -84.1117 355° North 134 154 7,000  Level Indianapolis Center
Sat 12:31:29 PM 38.7558 -84.1172 354° North 135 155 7,000  Level Indianapolis Center
Sat 12:32:31 PM 38.7992 -84.1208 356° North 134 154 7,000 -145 Level Indianapolis Center
Sat 12:33:33 PM 38.8378 -84.1253 355° North 137 158 6,700 -390 Descending Indianapolis Center
Sat 12:34:34 PM 38.8747 -84.1325 351° North 133 153 6,200 -439 Descending Indianapolis Center
Sat 12:35:36 PM 38.9089 -84.1356 356° North 124 143 5,800 -435 Descending Indianapolis Center
Sat 12:36:38 PM 38.9444 -84.1394 355° North 126 145 5,300 -390 Descending Indianapolis Center
Sat 12:37:39 PM 38.9828 -84.1444 354° North 131 151 5,000 -146 Descending Indianapolis Center
Sat 12:38:41 PM 39.0192 -84.1492 354° North 133 153 5,000  Level Indianapolis Center
Sat 12:39:43 PM 39.0556 -84.1550 353° North 131 151 5,000  Level Indianapolis Center
Sat 12:40:45 PM 39.0919 -84.1594 355° North 131 151 5,000  Level Indianapolis Center
Sat 12:41:46 PM 39.1286 -84.1653 353° North 131 151 5,000  Level Indianapolis Center
Sat 12:42:48 PM 39.1708 -84.1706 354° North 130 150 5,000  Level Indianapolis Center
Sat 12:43:50 PM 39.2078 -84.1750 355° North 131 151 5,000  Level Indianapolis Center
Sat 12:44:51 PM 39.2439 -84.1789 355° North 131 151 5,000  Level Indianapolis Center
Sat 12:45:53 PM 39.2786 -84.1847 353° North 128 147 5,000  Level Indianapolis Center
Sat 12:46:08 PM 39.2892 -84.1853 358° North 127 146 5,000 -387 Level Indianapolis Center
Sat 12:46:55 PM 39.3150 -84.1892 353° North 128 147 4,600 -500 Descending Indianapolis Center
Sat 12:47:56 PM 39.3508 -84.1936 355° North 128 147 4,100 -439 Descending Indianapolis Center
Sat 12:48:58 PM 39.3858 -84.1989 353° North 127 146 3,700 -435 Descending Indianapolis Center
Sat 12:50:00 PM 39.4244 -84.2028 356° North 131 151 3,200 -341 Descending Indianapolis Center
Sat 12:51:01 PM 39.4667 -84.2094 353° North 141 162 3,000 -98 Descending Indianapolis Center
Sat 12:52:03 PM 39.5111 -84.2169 353° North 142 163 3,000  Level Indianapolis Center

Login

Don't have an account? Register now (free) for customized features, flight alerts, and more!